Aérodrome :
LOGIN :

S'inscrire | Disclaimer

   EN    FR    IT 

 










Légende :    VFR   VFR Marginal   IFR   IFR Intensif   IFR Très Intensif
Visi : 
Plafond : 
>= 8 km
>= 3000ft
5 à 8 km
1000 à 3000 ft
1500m à 5 km
500 à 1000 ft
800 à 1500m
200 à 500 ft
< 800m
< 200 ft
Symboles :   Orages  Brouillard  Fortes neiges  Fortes précipitations  Vent > 20 kt
SIGMETs :   Divers  Orages  Givrage  Turbulence  Onde Orograph.  Cendres Volcan.






- Altitude de l'aérodrome : 404 ft
- Code IATA : WRO


EPWR - Wroclaw

DERNIER METAR :
  • 271530Z 24007KT 210V280 9999 SCT038 BKN047 12/07 Q1007

METARs EXPIRÉS :
  • 271500Z 22011KT 9999 BKN033 13/06 Q1007
  • 271430Z 23009KT 9999 SCT030 BKN037 OVC045 13/06 Q1007
  • 271400Z 23010KT 9999 SCT030 BKN038 OVC046 13/06 Q1006
  • 271330Z 27005KT 9999 BKN030 13/07 Q1006
  • 271300Z 29007KT 9999 BKN038 13/07 Q1006

TAF TAF EPWR
Valide du 27 à 15h jusqu'au 28 à 15h UTC


271430Z 2715/2815 22007KT 9999 SCT030
PROB30
TEMPO 2723/2806 4000 BR
BECMG 2807/2810 09012KT BKN014



MET'MAP, la Météo Aéronautique d'un coup d'oeil ! - Copyright ORBIFLY Décembre 2007 - Disclaimer

ORBIFLY MET'MAP TEAM :

Programmation & Développement : Alexandra Zaïnal
Sur une idée originale de : Baudouin d'Aumeries
Assistance à la programmation : Marc-Olivier Méhu
Soutien technique & logistique : Manuel Goepfert

Contact : metmap@orbifly.com




SOURCES & CREDITS :

   NOAA